sensor_id;sensor_type;location;lat;lon;timestamp;P1;durP1;ratioP1;P2;durP2;ratioP2
21862;SDS011;11096;51.338;12.524;2023-03-01T00:02:20;14.55;;;7.43;;
21862;SDS011;11096;51.338;12.524;2023-03-01T00:04:46;15.98;;;7.72;;
21862;SDS011;11096;51.338;12.524;2023-03-01T00:07:11;14.05;;;6.53;;
21862;SDS011;11096;51.338;12.524;2023-03-01T00:09:37;14.35;;;7.95;;
21862;SDS011;11096;51.338;12.524;2023-03-01T00:12:03;15.00;;;7.72;;
21862;SDS011;11096;51.338;12.524;2023-03-01T00:14:29;19.17;;;8.15;;
21862;SDS011;11096;51.338;12.524;2023-03-01T00:16:54;17.70;;;8.18;;
21862;SDS011;11096;51.338;12.524;2023-03-01T00:19:20;17.13;;;8.48;;
21862;SDS011;11096;51.338;12.524;2023-03-01T00:21:47;17.27;;;8.32;;
21862;SDS011;11096;51.338;12.524;2023-03-01T00:24:13;19.55;;;8.20;;
21862;SDS011;11096;51.338;12.524;2023-03-01T00:26:39;15.32;;;8.13;;
21862;SDS011;11096;51.338;12.524;2023-03-01T00:29:05;17.67;;;7.93;;
21862;SDS011;11096;51.338;12.524;2023-03-01T00:31:31;13.75;;;7.28;;
21862;SDS011;11096;51.338;12.524;2023-03-01T00:33:58;14.73;;;7.38;;
21862;SDS011;11096;51.338;12.524;2023-03-01T00:36:27;15.23;;;8.43;;
21862;SDS011;11096;51.338;12.524;2023-03-01T00:38:55;13.30;;;7.57;;
21862;SDS011;11096;51.338;12.524;2023-03-01T00:41:21;13.63;;;7.95;;
21862;SDS011;11096;51.338;12.524;2023-03-01T00:43:48;14.90;;;7.95;;
21862;SDS011;11096;51.338;12.524;2023-03-01T00:46:18;15.05;;;7.40;;
21862;SDS011;11096;51.338;12.524;2023-03-01T00:48:46;19.13;;;9.10;;
21862;SDS011;11096;51.338;12.524;2023-03-01T00:51:12;19.45;;;8.88;;
21862;SDS011;11096;51.338;12.524;2023-03-01T00:53:44;13.57;;;8.07;;
21862;SDS011;11096;51.338;12.524;2023-03-01T00:56:11;16.67;;;7.75;;
21862;SDS011;11096;51.338;12.524;2023-03-01T00:58:37;13.00;;;7.60;;
21862;SDS011;11096;51.338;12.524;2023-03-01T01:03:42;17.17;;;7.95;;
21862;SDS011;11096;51.338;12.524;2023-03-01T01:06:17;16.13;;;7.53;;
21862;SDS011;11096;51.338;12.524;2023-03-01T01:08:45;18.08;;;7.53;;
21862;SDS011;11096;51.338;12.524;2023-03-01T01:11:11;17.60;;;8.73;;
21862;SDS011;11096;51.338;12.524;2023-03-01T01:13:37;16.40;;;7.85;;
21862;SDS011;11096;51.338;12.524;2023-03-01T01:16:03;15.40;;;7.97;;
21862;SDS011;11096;51.338;12.524;2023-03-01T01:18:29;15.70;;;8.45;;
21862;SDS011;11096;51.338;12.524;2023-03-01T01:20:55;20.65;;;8.07;;
21862;SDS011;11096;51.338;12.524;2023-03-01T01:23:20;15.70;;;7.82;;
21862;SDS011;11096;51.338;12.524;2023-03-01T01:25:45;16.45;;;7.35;;
21862;SDS011;11096;51.338;12.524;2023-03-01T01:28:11;19.83;;;7.13;;
21862;SDS011;11096;51.338;12.524;2023-03-01T01:30:37;15.50;;;7.28;;
21862;SDS011;11096;51.338;12.524;2023-03-01T01:33:02;16.58;;;7.05;;
21862;SDS011;11096;51.338;12.524;2023-03-01T01:35:27;12.93;;;7.28;;
21862;SDS011;11096;51.338;12.524;2023-03-01T01:37:53;15.90;;;7.40;;
21862;SDS011;11096;51.338;12.524;2023-03-01T01:40:18;12.50;;;7.22;;
21862;SDS011;11096;51.338;12.524;2023-03-01T01:42:44;12.55;;;7.05;;
21862;SDS011;11096;51.338;12.524;2023-03-01T01:48:07;17.13;;;8.52;;
21862;SDS011;11096;51.338;12.524;2023-03-01T01:50:38;15.32;;;7.25;;
21862;SDS011;11096;51.338;12.524;2023-03-01T01:53:10;18.42;;;8.38;;
21862;SDS011;11096;51.338;12.524;2023-03-01T01:55:48;14.73;;;7.80;;
21862;SDS011;11096;51.338;12.524;2023-03-01T01:58:23;17.02;;;7.72;;
21862;SDS011;11096;51.338;12.524;2023-03-01T02:00:52;20.45;;;8.80;;
21862;SDS011;11096;51.338;12.524;2023-03-01T02:03:23;20.58;;;8.65;;
21862;SDS011;11096;51.338;12.524;2023-03-01T02:06:06;15.13;;;7.82;;
21862;SDS011;11096;51.338;12.524;2023-03-01T02:08:33;14.40;;;8.40;;
21862;SDS011;11096;51.338;12.524;2023-03-01T02:11:02;13.27;;;7.85;;
21862;SDS011;11096;51.338;12.524;2023-03-01T02:13:29;12.98;;;6.65;;
21862;SDS011;11096;51.338;12.524;2023-03-01T02:15:57;17.42;;;7.60;;
21862;SDS011;11096;51.338;12.524;2023-03-01T02:18:23;15.18;;;7.55;;
21862;SDS011;11096;51.338;12.524;2023-03-01T02:23:36;15.75;;;7.85;;
21862;SDS011;11096;51.338;12.524;2023-03-01T02:26:07;19.60;;;7.40;;
21862;SDS011;11096;51.338;12.524;2023-03-01T02:28:40;14.95;;;7.50;;
21862;SDS011;11096;51.338;12.524;2023-03-01T02:31:08;14.93;;;6.90;;
21862;SDS011;11096;51.338;12.524;2023-03-01T02:33:54;14.10;;;7.03;;
21862;SDS011;11096;51.338;12.524;2023-03-01T02:36:25;16.60;;;6.40;;
21862;SDS011;11096;51.338;12.524;2023-03-01T02:38:55;14.57;;;7.00;;
21862;SDS011;11096;51.338;12.524;2023-03-01T02:41:23;11.02;;;6.55;;
21862;SDS011;11096;51.338;12.524;2023-03-01T02:43:51;13.70;;;7.45;;
21862;SDS011;11096;51.338;12.524;2023-03-01T02:46:18;17.92;;;7.05;;
21862;SDS011;11096;51.338;12.524;2023-03-01T02:48:50;16.15;;;7.35;;
21862;SDS011;11096;51.338;12.524;2023-03-01T02:51:21;15.25;;;7.53;;
21862;SDS011;11096;51.338;12.524;2023-03-01T02:56:48;15.05;;;7.22;;
21862;SDS011;11096;51.338;12.524;2023-03-01T02:59:16;12.60;;;6.97;;
21862;SDS011;11096;51.338;12.524;2023-03-01T03:01:44;20.20;;;8.00;;
21862;SDS011;11096;51.338;12.524;2023-03-01T03:04:13;15.55;;;7.47;;
21862;SDS011;11096;51.338;12.524;2023-03-01T03:06:44;16.25;;;7.97;;
21862;SDS011;11096;51.338;12.524;2023-03-01T03:09:10;17.45;;;7.78;;
21862;SDS011;11096;51.338;12.524;2023-03-01T03:11:36;14.57;;;7.97;;
21862;SDS011;11096;51.338;12.524;2023-03-01T03:14:04;19.17;;;8.40;;
21862;SDS011;11096;51.338;12.524;2023-03-01T03:16:29;14.52;;;7.45;;
21862;SDS011;11096;51.338;12.524;2023-03-01T03:18:55;13.70;;;7.18;;
21862;SDS011;11096;51.338;12.524;2023-03-01T03:21:29;15.82;;;6.68;;
21862;SDS011;11096;51.338;12.524;2023-03-01T03:23:58;11.23;;;7.05;;
21862;SDS011;11096;51.338;12.524;2023-03-01T03:26:24;14.30;;;7.50;;
21862;SDS011;11096;51.338;12.524;2023-03-01T03:28:49;15.77;;;7.88;;
21862;SDS011;11096;51.338;12.524;2023-03-01T03:31:15;14.32;;;7.55;;
21862;SDS011;11096;51.338;12.524;2023-03-01T03:33:41;13.00;;;6.85;;
21862;SDS011;11096;51.338;12.524;2023-03-01T03:36:06;16.23;;;7.82;;
21862;SDS011;11096;51.338;12.524;2023-03-01T03:38:38;17.48;;;7.40;;
21862;SDS011;11096;51.338;12.524;2023-03-01T03:41:06;17.77;;;7.43;;
21862;SDS011;11096;51.338;12.524;2023-03-01T03:43:36;13.45;;;7.25;;
21862;SDS011;11096;51.338;12.524;2023-03-01T03:46:03;14.95;;;7.07;;
21862;SDS011;11096;51.338;12.524;2023-03-01T03:48:39;14.88;;;7.68;;
21862;SDS011;11096;51.338;12.524;2023-03-01T03:51:06;13.23;;;6.18;;
21862;SDS011;11096;51.338;12.524;2023-03-01T03:53:35;14.20;;;7.25;;
21862;SDS011;11096;51.338;12.524;2023-03-01T03:56:00;15.65;;;7.40;;
21862;SDS011;11096;51.338;12.524;2023-03-01T03:58:26;14.43;;;6.65;;
21862;SDS011;11096;51.338;12.524;2023-03-01T04:00:54;14.32;;;7.70;;
21862;SDS011;11096;51.338;12.524;2023-03-01T04:03:21;14.50;;;7.15;;
21862;SDS011;11096;51.338;12.524;2023-03-01T04:05:48;18.35;;;7.07;;
21862;SDS011;11096;51.338;12.524;2023-03-01T04:08:20;14.88;;;6.88;;
21862;SDS011;11096;51.338;12.524;2023-03-01T04:10:49;15.20;;;6.75;;
21862;SDS011;11096;51.338;12.524;2023-03-01T04:13:17;16.08;;;8.00;;
21862;SDS011;11096;51.338;12.524;2023-03-01T04:15:45;14.27;;;6.95;;
21862;SDS011;11096;51.338;12.524;2023-03-01T04:18:18;14.77;;;7.88;;
21862;SDS011;11096;51.338;12.524;2023-03-01T04:20:47;16.70;;;7.03;;
21862;SDS011;11096;51.338;12.524;2023-03-01T04:23:14;16.05;;;7.25;;
21862;SDS011;11096;51.338;12.524;2023-03-01T04:25:49;16.13;;;7.22;;
21862;SDS011;11096;51.338;12.524;2023-03-01T04:28:23;17.65;;;8.60;;
21862;SDS011;11096;51.338;12.524;2023-03-01T04:30:52;14.55;;;6.65;;
21862;SDS011;11096;51.338;12.524;2023-03-01T04:33:18;15.82;;;7.43;;
21862;SDS011;11096;51.338;12.524;2023-03-01T04:35:44;17.38;;;8.23;;
21862;SDS011;11096;51.338;12.524;2023-03-01T04:38:10;15.20;;;7.70;;
21862;SDS011;11096;51.338;12.524;2023-03-01T04:40:36;15.98;;;7.63;;
21862;SDS011;11096;51.338;12.524;2023-03-01T04:43:02;15.68;;;8.30;;
21862;SDS011;11096;51.338;12.524;2023-03-01T04:45:29;15.52;;;7.72;;
21862;SDS011;11096;51.338;12.524;2023-03-01T04:47:54;15.95;;;8.20;;
21862;SDS011;11096;51.338;12.524;2023-03-01T04:50:23;21.83;;;8.13;;
21862;SDS011;11096;51.338;12.524;2023-03-01T04:52:49;18.70;;;7.95;;
21862;SDS011;11096;51.338;12.524;2023-03-01T04:55:15;17.73;;;8.45;;
21862;SDS011;11096;51.338;12.524;2023-03-01T04:57:41;18.73;;;7.97;;
21862;SDS011;11096;51.338;12.524;2023-03-01T05:00:07;18.50;;;7.65;;
21862;SDS011;11096;51.338;12.524;2023-03-01T05:05:39;18.88;;;8.00;;
21862;SDS011;11096;51.338;12.524;2023-03-01T05:08:07;19.52;;;7.70;;
21862;SDS011;11096;51.338;12.524;2023-03-01T05:10:34;17.33;;;8.13;;
21862;SDS011;11096;51.338;12.524;2023-03-01T05:13:01;16.92;;;8.00;;
21862;SDS011;11096;51.338;12.524;2023-03-01T05:15:29;17.08;;;7.93;;
21862;SDS011;11096;51.338;12.524;2023-03-01T05:17:56;12.75;;;7.35;;
21862;SDS011;11096;51.338;12.524;2023-03-01T05:20:24;15.07;;;7.32;;
21862;SDS011;11096;51.338;12.524;2023-03-01T05:22:54;14.48;;;7.63;;
21862;SDS011;11096;51.338;12.524;2023-03-01T05:25:21;17.15;;;7.20;;
21862;SDS011;11096;51.338;12.524;2023-03-01T05:27:47;15.02;;;8.30;;
21862;SDS011;11096;51.338;12.524;2023-03-01T05:30:13;18.05;;;8.43;;
21862;SDS011;11096;51.338;12.524;2023-03-01T05:32:43;19.52;;;8.60;;
21862;SDS011;11096;51.338;12.524;2023-03-01T05:35:10;14.95;;;8.05;;
21862;SDS011;11096;51.338;12.524;2023-03-01T05:37:39;19.38;;;7.60;;
21862;SDS011;11096;51.338;12.524;2023-03-01T05:40:06;14.63;;;7.88;;
21862;SDS011;11096;51.338;12.524;2023-03-01T05:42:40;16.65;;;7.22;;
21862;SDS011;11096;51.338;12.524;2023-03-01T05:45:19;16.95;;;8.38;;
21862;SDS011;11096;51.338;12.524;2023-03-01T05:47:46;17.70;;;8.63;;
21862;SDS011;11096;51.338;12.524;2023-03-01T05:50:22;16.98;;;7.38;;
21862;SDS011;11096;51.338;12.524;2023-03-01T05:53:35;16.05;;;7.53;;
21862;SDS011;11096;51.338;12.524;2023-03-01T05:55:38;14.13;;;7.00;;
21862;SDS011;11096;51.338;12.524;2023-03-01T05:58:05;18.75;;;8.07;;
21862;SDS011;11096;51.338;12.524;2023-03-01T06:00:32;17.10;;;7.75;;
21862;SDS011;11096;51.338;12.524;2023-03-01T06:02:59;17.25;;;8.57;;
21862;SDS011;11096;51.338;12.524;2023-03-01T06:05:25;16.50;;;8.32;;
21862;SDS011;11096;51.338;12.524;2023-03-01T06:07:51;16.85;;;7.68;;
21862;SDS011;11096;51.338;12.524;2023-03-01T06:10:18;19.98;;;8.60;;
21862;SDS011;11096;51.338;12.524;2023-03-01T06:12:45;19.25;;;8.73;;
21862;SDS011;11096;51.338;12.524;2023-03-01T06:15:11;16.90;;;8.52;;
21862;SDS011;11096;51.338;12.524;2023-03-01T06:17:38;15.40;;;8.38;;
21862;SDS011;11096;51.338;12.524;2023-03-01T06:20:06;23.52;;;8.57;;
21862;SDS011;11096;51.338;12.524;2023-03-01T06:22:34;16.80;;;8.48;;
21862;SDS011;11096;51.338;12.524;2023-03-01T06:24:59;16.27;;;8.73;;
21862;SDS011;11096;51.338;12.524;2023-03-01T06:27:25;17.75;;;8.50;;
21862;SDS011;11096;51.338;12.524;2023-03-01T06:29:50;18.08;;;8.00;;
21862;SDS011;11096;51.338;12.524;2023-03-01T06:32:16;20.45;;;8.63;;
21862;SDS011;11096;51.338;12.524;2023-03-01T06:34:41;22.90;;;10.20;;
21862;SDS011;11096;51.338;12.524;2023-03-01T06:37:07;23.83;;;9.93;;
21862;SDS011;11096;51.338;12.524;2023-03-01T06:39:33;24.98;;;11.30;;
21862;SDS011;11096;51.338;12.524;2023-03-01T06:41:58;27.50;;;11.38;;
21862;SDS011;11096;51.338;12.524;2023-03-01T06:44:24;24.70;;;10.52;;
21862;SDS011;11096;51.338;12.524;2023-03-01T06:46:49;21.63;;;9.77;;
21862;SDS011;11096;51.338;12.524;2023-03-01T06:49:15;23.73;;;11.40;;
21862;SDS011;11096;51.338;12.524;2023-03-01T06:51:42;18.73;;;8.98;;
21862;SDS011;11096;51.338;12.524;2023-03-01T06:54:08;19.50;;;9.60;;
21862;SDS011;11096;51.338;12.524;2023-03-01T06:56:34;22.70;;;10.63;;
21862;SDS011;11096;51.338;12.524;2023-03-01T06:59:00;21.23;;;8.85;;
21862;SDS011;11096;51.338;12.524;2023-03-01T07:01:25;17.90;;;9.93;;
21862;SDS011;11096;51.338;12.524;2023-03-01T07:03:51;15.73;;;10.05;;
21862;SDS011;11096;51.338;12.524;2023-03-01T07:06:16;19.73;;;9.98;;
21862;SDS011;11096;51.338;12.524;2023-03-01T07:08:42;24.25;;;10.85;;
21862;SDS011;11096;51.338;12.524;2023-03-01T07:11:08;18.20;;;9.98;;
21862;SDS011;11096;51.338;12.524;2023-03-01T07:13:33;19.90;;;10.15;;
21862;SDS011;11096;51.338;12.524;2023-03-01T07:15:59;24.45;;;10.80;;
21862;SDS011;11096;51.338;12.524;2023-03-01T07:18:24;22.98;;;11.50;;
21862;SDS011;11096;51.338;12.524;2023-03-01T07:20:50;19.27;;;10.15;;
21862;SDS011;11096;51.338;12.524;2023-03-01T07:23:15;19.60;;;9.88;;
21862;SDS011;11096;51.338;12.524;2023-03-01T07:25:41;19.20;;;10.43;;
21862;SDS011;11096;51.338;12.524;2023-03-01T07:28:06;17.42;;;10.18;;
21862;SDS011;11096;51.338;12.524;2023-03-01T07:30:31;26.33;;;10.50;;
21862;SDS011;11096;51.338;12.524;2023-03-01T07:32:57;22.38;;;10.38;;
21862;SDS011;11096;51.338;12.524;2023-03-01T07:35:24;17.15;;;9.07;;
21862;SDS011;11096;51.338;12.524;2023-03-01T07:37:51;24.50;;;9.73;;
21862;SDS011;11096;51.338;12.524;2023-03-01T07:40:16;19.30;;;9.27;;
21862;SDS011;11096;51.338;12.524;2023-03-01T07:42:42;21.45;;;9.55;;
21862;SDS011;11096;51.338;12.524;2023-03-01T07:45:07;16.40;;;9.23;;
21862;SDS011;11096;51.338;12.524;2023-03-01T07:47:34;23.98;;;10.35;;
21862;SDS011;11096;51.338;12.524;2023-03-01T07:49:59;22.00;;;9.73;;
21862;SDS011;11096;51.338;12.524;2023-03-01T07:52:26;20.55;;;9.82;;
21862;SDS011;11096;51.338;12.524;2023-03-01T07:54:51;22.60;;;9.52;;
21862;SDS011;11096;51.338;12.524;2023-03-01T07:57:17;20.88;;;9.60;;
21862;SDS011;11096;51.338;12.524;2023-03-01T07:59:42;17.80;;;8.73;;
21862;SDS011;11096;51.338;12.524;2023-03-01T08:02:08;18.27;;;10.48;;
21862;SDS011;11096;51.338;12.524;2023-03-01T08:04:35;22.02;;;9.70;;
21862;SDS011;11096;51.338;12.524;2023-03-01T08:07:00;21.10;;;9.75;;
21862;SDS011;11096;51.338;12.524;2023-03-01T08:09:26;22.65;;;9.10;;
21862;SDS011;11096;51.338;12.524;2023-03-01T08:11:51;14.98;;;8.50;;
21862;SDS011;11096;51.338;12.524;2023-03-01T08:14:16;19.73;;;9.82;;
21862;SDS011;11096;51.338;12.524;2023-03-01T08:16:42;22.33;;;9.20;;
21862;SDS011;11096;51.338;12.524;2023-03-01T08:19:09;17.30;;;9.05;;
21862;SDS011;11096;51.338;12.524;2023-03-01T08:21:36;20.75;;;9.40;;
21862;SDS011;11096;51.338;12.524;2023-03-01T08:24:03;18.88;;;9.48;;
21862;SDS011;11096;51.338;12.524;2023-03-01T08:26:31;18.50;;;9.38;;
21862;SDS011;11096;51.338;12.524;2023-03-01T08:28:57;22.35;;;10.35;;
21862;SDS011;11096;51.338;12.524;2023-03-01T08:31:27;20.50;;;9.50;;
21862;SDS011;11096;51.338;12.524;2023-03-01T08:33:56;21.65;;;10.30;;
21862;SDS011;11096;51.338;12.524;2023-03-01T08:36:25;20.30;;;9.85;;
21862;SDS011;11096;51.338;12.524;2023-03-01T08:38:53;17.95;;;9.98;;
21862;SDS011;11096;51.338;12.524;2023-03-01T08:41:18;19.55;;;9.40;;
21862;SDS011;11096;51.338;12.524;2023-03-01T08:43:44;17.08;;;9.77;;
21862;SDS011;11096;51.338;12.524;2023-03-01T08:46:10;22.38;;;10.55;;
21862;SDS011;11096;51.338;12.524;2023-03-01T08:48:36;21.42;;;10.30;;
21862;SDS011;11096;51.338;12.524;2023-03-01T08:51:12;26.15;;;11.00;;
21862;SDS011;11096;51.338;12.524;2023-03-01T08:53:41;22.20;;;10.32;;
21862;SDS011;11096;51.338;12.524;2023-03-01T08:56:06;20.17;;;10.27;;
21862;SDS011;11096;51.338;12.524;2023-03-01T08:58:33;22.58;;;10.55;;
21862;SDS011;11096;51.338;12.524;2023-03-01T09:00:58;19.25;;;9.77;;
21862;SDS011;11096;51.338;12.524;2023-03-01T09:03:25;23.05;;;10.88;;
21862;SDS011;11096;51.338;12.524;2023-03-01T09:05:52;22.33;;;10.90;;
21862;SDS011;11096;51.338;12.524;2023-03-01T09:08:18;22.30;;;10.52;;
21862;SDS011;11096;51.338;12.524;2023-03-01T09:10:44;21.77;;;9.77;;
21862;SDS011;11096;51.338;12.524;2023-03-01T09:13:10;23.58;;;10.25;;
21862;SDS011;11096;51.338;12.524;2023-03-01T09:15:36;23.48;;;11.27;;
21862;SDS011;11096;51.338;12.524;2023-03-01T09:18:02;25.30;;;11.45;;
21862;SDS011;11096;51.338;12.524;2023-03-01T09:20:28;19.00;;;10.25;;
21862;SDS011;11096;51.338;12.524;2023-03-01T09:22:55;18.67;;;10.57;;
21862;SDS011;11096;51.338;12.524;2023-03-01T09:25:21;22.05;;;9.95;;
21862;SDS011;11096;51.338;12.524;2023-03-01T09:27:46;19.77;;;10.38;;
21862;SDS011;11096;51.338;12.524;2023-03-01T09:30:12;17.73;;;10.27;;
21862;SDS011;11096;51.338;12.524;2023-03-01T09:32:37;19.23;;;9.80;;
21862;SDS011;11096;51.338;12.524;2023-03-01T09:35:07;19.13;;;11.00;;
21862;SDS011;11096;51.338;12.524;2023-03-01T09:37:34;17.40;;;10.73;;
21862;SDS011;11096;51.338;12.524;2023-03-01T09:40:00;17.42;;;10.50;;
21862;SDS011;11096;51.338;12.524;2023-03-01T09:42:28;19.27;;;10.75;;
21862;SDS011;11096;51.338;12.524;2023-03-01T09:47:28;18.40;;;10.75;;
21862;SDS011;11096;51.338;12.524;2023-03-01T09:52:43;18.23;;;10.88;;
21862;SDS011;11096;51.338;12.524;2023-03-01T09:55:22;17.50;;;10.77;;
21862;SDS011;11096;51.338;12.524;2023-03-01T10:00:46;16.50;;;10.00;;
21862;SDS011;11096;51.338;12.524;2023-03-01T10:03:25;18.95;;;10.77;;
21862;SDS011;11096;51.338;12.524;2023-03-01T10:08:53;16.55;;;10.00;;
21862;SDS011;11096;51.338;12.524;2023-03-01T10:11:26;17.00;;;10.82;;
21862;SDS011;11096;51.338;12.524;2023-03-01T10:18:53;18.15;;;10.55;;
21862;SDS011;11096;51.338;12.524;2023-03-01T10:21:25;18.50;;;10.85;;
21862;SDS011;11096;51.338;12.524;2023-03-01T10:23:52;15.40;;;10.60;;
21862;SDS011;11096;51.338;12.524;2023-03-01T10:29:04;17.17;;;9.90;;
21862;SDS011;11096;51.338;12.524;2023-03-01T10:31:41;18.05;;;9.63;;
21862;SDS011;11096;51.338;12.524;2023-03-01T10:34:11;16.83;;;10.27;;
21862;SDS011;11096;51.338;12.524;2023-03-01T10:36:42;16.48;;;10.45;;
21862;SDS011;11096;51.338;12.524;2023-03-01T10:39:13;15.45;;;9.60;;
21862;SDS011;11096;51.338;12.524;2023-03-01T10:42:00;14.55;;;8.77;;
21862;SDS011;11096;51.338;12.524;2023-03-01T10:44:38;14.68;;;8.95;;
21862;SDS011;11096;51.338;12.524;2023-03-01T10:54:59;16.52;;;10.82;;
21862;SDS011;11096;51.338;12.524;2023-03-01T10:57:32;16.00;;;10.50;;
21862;SDS011;11096;51.338;12.524;2023-03-01T11:03:04;17.17;;;11.23;;
21862;SDS011;11096;51.338;12.524;2023-03-01T11:05:37;17.77;;;11.48;;
21862;SDS011;11096;51.338;12.524;2023-03-01T11:08:25;19.63;;;12.25;;
21862;SDS011;11096;51.338;12.524;2023-03-01T11:13:53;17.25;;;12.00;;
21862;SDS011;11096;51.338;12.524;2023-03-01T11:16:26;18.48;;;11.82;;
21862;SDS011;11096;51.338;12.524;2023-03-01T11:18:58;16.08;;;12.00;;
21862;SDS011;11096;51.338;12.524;2023-03-01T11:21:25;18.08;;;12.23;;
21862;SDS011;11096;51.338;12.524;2023-03-01T11:23:53;19.85;;;12.98;;
21862;SDS011;11096;51.338;12.524;2023-03-01T11:26:19;18.30;;;13.27;;
21862;SDS011;11096;51.338;12.524;2023-03-01T11:28:48;19.83;;;13.25;;
21862;SDS011;11096;51.338;12.524;2023-03-01T11:31:16;16.98;;;12.20;;
21862;SDS011;11096;51.338;12.524;2023-03-01T11:33:50;19.98;;;13.00;;
21862;SDS011;11096;51.338;12.524;2023-03-01T11:36:32;19.63;;;12.88;;
21862;SDS011;11096;51.338;12.524;2023-03-01T11:41:52;18.77;;;12.85;;
21862;SDS011;11096;51.338;12.524;2023-03-01T11:44:29;17.98;;;12.43;;
21862;SDS011;11096;51.338;12.524;2023-03-01T11:47:14;19.85;;;12.60;;
21862;SDS011;11096;51.338;12.524;2023-03-01T11:52:35;15.70;;;12.05;;
21862;SDS011;11096;51.338;12.524;2023-03-01T11:58:04;16.70;;;11.85;;
21862;SDS011;11096;51.338;12.524;2023-03-01T12:28:31;13.30;;;9.15;;
21862;SDS011;11096;51.338;12.524;2023-03-01T12:39:22;13.82;;;9.38;;
21862;SDS011;11096;51.338;12.524;2023-03-01T12:50:21;14.50;;;10.50;;
21862;SDS011;11096;51.338;12.524;2023-03-01T12:52:51;14.63;;;10.05;;
21862;SDS011;11096;51.338;12.524;2023-03-01T13:00:32;13.85;;;10.15;;
21862;SDS011;11096;51.338;12.524;2023-03-01T13:08:45;12.10;;;9.02;;
21862;SDS011;11096;51.338;12.524;2023-03-01T13:11:18;13.77;;;10.15;;
21862;SDS011;11096;51.338;12.524;2023-03-01T13:13:46;12.82;;;9.85;;
21862;SDS011;11096;51.338;12.524;2023-03-01T13:19:22;15.65;;;9.75;;
21862;SDS011;11096;51.338;12.524;2023-03-01T13:21:50;14.93;;;9.48;;
21862;SDS011;11096;51.338;12.524;2023-03-01T13:24:38;13.65;;;8.80;;
21862;SDS011;11096;51.338;12.524;2023-03-01T13:29:31;15.35;;;9.68;;
21862;SDS011;11096;51.338;12.524;2023-03-01T13:32:22;13.85;;;8.50;;
21862;SDS011;11096;51.338;12.524;2023-03-01T13:34:54;13.63;;;8.38;;
21862;SDS011;11096;51.338;12.524;2023-03-01T13:37:26;14.98;;;9.10;;
21862;SDS011;11096;51.338;12.524;2023-03-01T13:39:54;13.55;;;8.30;;
21862;SDS011;11096;51.338;12.524;2023-03-01T13:42:39;19.00;;;9.35;;
21862;SDS011;11096;51.338;12.524;2023-03-01T13:47:43;11.35;;;8.20;;
21862;SDS011;11096;51.338;12.524;2023-03-01T13:50:18;13.00;;;7.90;;
21862;SDS011;11096;51.338;12.524;2023-03-01T13:53:09;13.10;;;8.20;;
21862;SDS011;11096;51.338;12.524;2023-03-01T13:55:38;11.98;;;7.57;;
21862;SDS011;11096;51.338;12.524;2023-03-01T14:03:30;12.35;;;7.50;;
21862;SDS011;11096;51.338;12.524;2023-03-01T14:08:32;10.48;;;7.00;;
21862;SDS011;11096;51.338;12.524;2023-03-01T14:19:18;10.63;;;6.53;;
21862;SDS011;11096;51.338;12.524;2023-03-01T14:21:57;11.20;;;7.38;;
21862;SDS011;11096;51.338;12.524;2023-03-01T14:24:25;14.20;;;7.35;;
21862;SDS011;11096;51.338;12.524;2023-03-01T14:26:52;11.43;;;6.60;;
21862;SDS011;11096;51.338;12.524;2023-03-01T14:29:27;12.23;;;6.95;;
21862;SDS011;11096;51.338;12.524;2023-03-01T14:32:09;9.93;;;6.20;;
21862;SDS011;11096;51.338;12.524;2023-03-01T14:34:35;12.50;;;7.45;;
21862;SDS011;11096;51.338;12.524;2023-03-01T14:37:10;12.80;;;7.20;;
21862;SDS011;11096;51.338;12.524;2023-03-01T14:39:42;14.73;;;7.30;;
21862;SDS011;11096;51.338;12.524;2023-03-01T14:42:07;12.50;;;6.68;;
21862;SDS011;11096;51.338;12.524;2023-03-01T14:44:33;11.27;;;6.43;;
21862;SDS011;11096;51.338;12.524;2023-03-01T14:47:02;13.60;;;6.95;;
21862;SDS011;11096;51.338;12.524;2023-03-01T14:49:29;12.75;;;7.00;;
21862;SDS011;11096;51.338;12.524;2023-03-01T14:52:06;11.15;;;5.90;;
21862;SDS011;11096;51.338;12.524;2023-03-01T14:54:49;9.75;;;5.68;;
21862;SDS011;11096;51.338;12.524;2023-03-01T14:57:18;11.25;;;5.78;;
21862;SDS011;11096;51.338;12.524;2023-03-01T14:59:49;11.38;;;5.80;;
21862;SDS011;11096;51.338;12.524;2023-03-01T15:02:19;10.15;;;5.50;;
21862;SDS011;11096;51.338;12.524;2023-03-01T15:04:47;9.43;;;5.20;;
21862;SDS011;11096;51.338;12.524;2023-03-01T15:07:16;10.05;;;5.60;;
21862;SDS011;11096;51.338;12.524;2023-03-01T15:09:43;8.82;;;4.68;;
21862;SDS011;11096;51.338;12.524;2023-03-01T15:14:56;8.38;;;4.90;;
21862;SDS011;11096;51.338;12.524;2023-03-01T15:20:01;9.38;;;5.07;;
21862;SDS011;11096;51.338;12.524;2023-03-01T15:22:30;6.57;;;4.15;;
21862;SDS011;11096;51.338;12.524;2023-03-01T15:24:55;7.63;;;4.85;;
21862;SDS011;11096;51.338;12.524;2023-03-01T15:27:24;7.40;;;4.07;;
21862;SDS011;11096;51.338;12.524;2023-03-01T15:29:52;9.50;;;4.68;;
21862;SDS011;11096;51.338;12.524;2023-03-01T15:35:00;9.25;;;4.28;;
21862;SDS011;11096;51.338;12.524;2023-03-01T15:37:49;13.57;;;6.45;;
21862;SDS011;11096;51.338;12.524;2023-03-01T15:40:18;10.75;;;6.22;;
21862;SDS011;11096;51.338;12.524;2023-03-01T15:42:46;12.32;;;5.65;;
21862;SDS011;11096;51.338;12.524;2023-03-01T15:48:04;11.18;;;5.53;;
21862;SDS011;11096;51.338;12.524;2023-03-01T15:50:40;11.80;;;5.22;;
21862;SDS011;11096;51.338;12.524;2023-03-01T15:53:10;10.55;;;5.45;;
21862;SDS011;11096;51.338;12.524;2023-03-01T15:55:37;12.00;;;5.38;;
21862;SDS011;11096;51.338;12.524;2023-03-01T15:58:04;12.90;;;5.45;;
21862;SDS011;11096;51.338;12.524;2023-03-01T16:00:34;11.68;;;5.32;;
21862;SDS011;11096;51.338;12.524;2023-03-01T16:03:00;13.45;;;5.40;;
21862;SDS011;11096;51.338;12.524;2023-03-01T16:05:30;12.13;;;5.80;;
21862;SDS011;11096;51.338;12.524;2023-03-01T16:08:00;12.85;;;6.15;;
21862;SDS011;11096;51.338;12.524;2023-03-01T16:10:25;12.32;;;5.20;;
21862;SDS011;11096;51.338;12.524;2023-03-01T16:12:51;13.93;;;5.53;;
21862;SDS011;11096;51.338;12.524;2023-03-01T16:15:21;10.82;;;5.13;;
21862;SDS011;11096;51.338;12.524;2023-03-01T16:17:49;13.00;;;5.55;;
21862;SDS011;11096;51.338;12.524;2023-03-01T16:20:15;13.75;;;5.65;;
21862;SDS011;11096;51.338;12.524;2023-03-01T16:22:44;12.95;;;5.55;;
21862;SDS011;11096;51.338;12.524;2023-03-01T16:25:11;13.68;;;5.85;;
21862;SDS011;11096;51.338;12.524;2023-03-01T16:27:44;14.07;;;6.20;;
21862;SDS011;11096;51.338;12.524;2023-03-01T16:30:11;10.93;;;5.32;;
21862;SDS011;11096;51.338;12.524;2023-03-01T16:32:39;11.43;;;5.50;;
21862;SDS011;11096;51.338;12.524;2023-03-01T16:35:05;12.98;;;5.63;;
21862;SDS011;11096;51.338;12.524;2023-03-01T16:37:32;10.73;;;5.28;;
21862;SDS011;11096;51.338;12.524;2023-03-01T16:39:58;10.77;;;6.05;;
21862;SDS011;11096;51.338;12.524;2023-03-01T16:42:24;11.18;;;5.55;;
21862;SDS011;11096;51.338;12.524;2023-03-01T16:44:54;11.50;;;5.60;;
21862;SDS011;11096;51.338;12.524;2023-03-01T16:47:20;8.15;;;5.18;;
21862;SDS011;11096;51.338;12.524;2023-03-01T16:49:45;9.15;;;5.30;;
21862;SDS011;11096;51.338;12.524;2023-03-01T16:52:11;10.45;;;4.95;;
21862;SDS011;11096;51.338;12.524;2023-03-01T16:54:36;13.38;;;5.35;;